Time;durP1;ratioP1;P1;durP2;ratioP2;P2;SDS_P1;SDS_P2;PMS_P1;PMS_P2;Temp;Humidity;BMP_temperature;BMP_pressure;BME280_temperature;BME280_humidity;BME280_pressure;Samples;Min_cycle;Max_cycle;Signal;HPM_P1;HPM_P2
2023/01/09 00:00:22;;;;;;;;;;;;;;;22.18;40.34;98619.00;7250565;19;153148;-58
2023/01/09 00:02:49;;;;;;;;;;;;;;;22.18;40.50;98624.63;7246965;19;152877;-58
2023/01/09 00:05:16;;;;;;;;;;;;;;;22.17;40.22;98637.06;7248949;19;154304;-58
2023/01/09 00:07:43;;;;;;;;;;;;;;;22.17;40.48;98625.81;7248288;19;154245;-58
2023/01/09 00:10:11;;;;;;;;;;;;;;;22.14;40.27;98624.56;7247944;19;154041;-57
2023/01/09 00:12:38;;;;;;;;;;;;;;;22.15;40.40;98631.00;7249526;19;153209;-57
2023/01/09 00:15:05;;;;;;;;;;;;;;;22.14;40.72;98646.25;7246272;19;154483;-57
2023/01/09 00:17:32;;;;;;;;;;;;;;;22.11;40.47;98642.22;7257689;19;153592;-58
2023/01/09 00:19:59;;;;;;;;;;;;;;;22.10;40.66;98640.56;7256911;19;154291;-58
2023/01/09 00:22:25;;;;;;;;;;;;;;;22.08;40.73;98642.94;7250147;19;154260;-58
2023/01/09 00:24:52;;;;;;;;;;;;;;;22.06;40.36;98650.13;7256280;19;153920;-58
2023/01/09 00:27:19;;;;;;;;;;;;;;;22.04;40.26;98652.50;7255394;19;152890;-58
2023/01/09 00:29:48;;;;;;;;;;;;;;;22.02;40.64;98664.13;7252399;19;154546;-58
2023/01/09 00:32:15;;;;;;;;;;;;;;;21.99;40.29;98666.88;7254795;19;153154;-58
2023/01/09 00:34:42;;;;;;;;;;;;;;;21.97;40.46;98672.06;7252123;19;154041;-58
2023/01/09 00:37:11;;;;;;;;;;;;;;;21.95;40.33;98675.25;7252134;19;154924;-58
2023/01/09 00:39:38;;;;;;;;;;;;;;;21.92;40.66;98683.59;7263096;19;153333;-58
2023/01/09 00:42:07;;;;;;;;;;;;;;;21.88;40.91;98694.78;7252467;19;153494;-58
2023/01/09 00:44:38;;;;;;;;;;;;;;;21.86;40.88;98699.94;7257223;19;152832;-58
2023/01/09 00:47:06;;;;;;;;;;;;;;;21.60;40.11;98699.81;7252748;19;153211;-57
2023/01/09 00:49:34;;;;;;;;;;;;;;;21.23;38.34;98705.03;7252170;19;153601;-57
2023/01/09 00:52:02;;;;;;;;;;;;;;;20.88;37.88;98702.22;7249996;19;155694;-57
2023/01/09 00:54:29;;;;;;;;;;;;;;;21.04;39.37;98716.22;7255316;19;152688;-57
2023/01/09 00:56:58;;;;;;;;;;;;;;;21.14;39.88;98718.47;7255791;19;153441;-54
2023/01/09 00:59:25;;;;;;;;;;;;;;;21.21;40.65;98729.91;7254738;19;152859;-54
2023/01/09 01:01:52;;;;;;;;;;;;;;;21.22;40.59;98734.31;7260067;19;154810;-54
2023/01/09 01:09:32;;;;;;;;;;;;;;;21.28;41.00;98747.72;7249665;19;155117;-54
2023/01/09 01:12:00;;;;;;;;;;;;;;;21.30;40.81;98752.97;7254625;19;154262;-55
2023/01/09 01:14:26;;;;;;;;;;;;;;;21.32;41.17;98756.22;7253938;19;153488;-55
2023/01/09 01:16:53;;;;;;;;;;;;;;;21.33;41.34;98765.44;7254327;19;153366;-55
2023/01/09 01:19:20;;;;;;;;;;;;;;;21.34;41.32;98770.72;7249628;19;153451;-54
2023/01/09 01:21:47;;;;;;;;;;;;;;;21.33;41.37;98771.06;7252290;19;153302;-54
2023/01/09 01:24:18;;;;;;;;;;;;;;;21.33;41.77;98774.69;7260242;19;153425;-54
2023/01/09 01:26:46;;;;;;;;;;;;;;;21.33;41.96;98785.13;7253491;19;154365;-56
2023/01/09 01:29:12;;;;;;;;;;;;;;;21.32;41.90;98794.72;7253940;19;153858;-56
2023/01/09 01:31:39;;;;;;;;;;;;;;;21.29;42.29;98805.53;7252567;19;153262;-56
2023/01/09 01:34:06;;;;;;;;;;;;;;;21.27;42.29;98807.06;7252687;19;154826;-55
2023/01/09 01:36:33;;;;;;;;;;;;;;;21.27;42.49;98812.66;7248828;19;153407;-56
2023/01/09 01:39:00;;;;;;;;;;;;;;;21.24;42.62;98805.81;7253155;19;154771;-56
2023/01/09 01:41:29;;;;;;;;;;;;;;;21.24;43.20;98816.22;7252637;19;152764;-56
2023/01/09 01:43:58;;;;;;;;;;;;;;;21.22;43.15;98821.38;7251278;19;153670;-56
2023/01/09 01:46:24;;;;;;;;;;;;;;;21.21;43.34;98828.97;7260111;19;153859;-56
2023/01/09 01:48:55;;;;;;;;;;;;;;;21.21;43.14;98826.16;7252323;19;154193;-55
2023/01/09 01:51:23;;;;;;;;;;;;;;;21.19;43.24;98824.91;7250147;19;154017;-56
2023/01/09 01:53:52;;;;;;;;;;;;;;;21.19;43.40;98830.53;7252409;19;154102;-56
2023/01/09 01:56:23;;;;;;;;;;;;;;;21.17;43.44;98844.13;7250542;19;154766;-56
2023/01/09 01:58:53;;;;;;;;;;;;;;;21.16;43.75;98853.75;7251016;19;152542;-56
2023/01/09 02:01:22;;;;;;;;;;;;;;;21.16;43.76;98850.94;7254542;19;153986;-56
2023/01/09 02:03:50;;;;;;;;;;;;;;;21.14;43.60;98856.09;7252537;19;154205;-56
2023/01/09 02:06:17;;;;;;;;;;;;;;;21.11;43.58;98862.41;7257059;19;153376;-56
2023/01/09 02:08:44;;;;;;;;;;;;;;;21.09;43.50;98868.38;7249790;19;155111;-56
2023/01/09 02:11:13;;;;;;;;;;;;;;;21.07;43.94;98873.56;7250868;19;154816;-56
2023/01/09 02:13:40;;;;;;;;;;;;;;;21.04;43.87;98870.63;7253548;19;153299;-56
2023/01/09 02:16:08;;;;;;;;;;;;;;;21.02;43.96;98881.44;7248379;19;154082;-56
2023/01/09 02:18:45;;;;;;;;;;;;;;;20.99;43.85;98880.13;7252199;19;152274;-56
2023/01/09 02:21:21;;;;;;;;;;;;;;;20.95;44.13;98878.41;7248915;19;155176;-56
2023/01/09 02:24:08;;;;;;;;;;;;;;;20.92;44.27;98887.56;7251631;19;155196;-56
2023/01/09 02:26:44;;;;;;;;;;;;;;;20.90;44.12;98901.97;7250646;19;153726;-56
2023/01/09 02:29:20;;;;;;;;;;;;;;;20.87;44.26;98902.69;7256794;19;153700;-56
2023/01/09 02:31:52;;;;;;;;;;;;;;;20.84;44.61;98912.66;7252021;19;152477;-56
2023/01/09 02:34:28;;;;;;;;;;;;;;;20.82;44.67;98915.00;7251209;19;153160;-56
2023/01/09 02:36:55;;;;;;;;;;;;;;;20.81;44.41;98923.78;7245797;19;153905;-56
2023/01/09 02:39:26;;;;;;;;;;;;;;;20.78;44.78;98927.31;7251319;19;154298;-56
2023/01/09 02:41:59;;;;;;;;;;;;;;;20.76;44.59;98938.06;7251414;19;154020;-56
2023/01/09 02:44:28;;;;;;;;;;;;;;;20.73;44.59;98936.81;7250759;19;154506;-56
2023/01/09 02:47:04;;;;;;;;;;;;;;;20.71;44.81;98935.53;7250924;19;153743;-56
2023/01/09 02:49:32;;;;;;;;;;;;;;;20.69;44.83;98943.50;7252939;19;153426;-56
2023/01/09 02:52:09;;;;;;;;;;;;;;;20.66;45.17;98952.63;7256291;19;153389;-56
2023/01/09 02:54:36;;;;;;;;;;;;;;;20.63;45.16;98945.72;7250569;19;153522;-56
2023/01/09 02:57:03;;;;;;;;;;;;;;;20.61;45.33;98950.91;7248918;19;155016;-56
2023/01/09 02:59:33;;;;;;;;;;;;;;;20.58;45.22;98956.41;7249720;19;153960;-56
2023/01/09 03:02:06;;;;;;;;;;;;;;;20.56;45.15;98968.00;7251779;19;153481;-56
2023/01/09 03:04:43;;;;;;;;;;;;;;;20.53;45.38;98971.53;7249357;19;154789;-56
2023/01/09 03:07:16;;;;;;;;;;;;;;;20.52;45.35;98980.28;7249162;19;153775;-56
2023/01/09 03:09:46;;;;;;;;;;;;;;;20.50;45.49;98982.63;7248892;19;153522;-56
2023/01/09 03:12:17;;;;;;;;;;;;;;;20.48;45.64;98991.41;7251216;19;154416;-55
2023/01/09 03:14:46;;;;;;;;;;;;;;;20.48;45.65;98991.41;7259632;19;153561;-56
2023/01/09 03:17:18;;;;;;;;;;;;;;;20.46;46.18;98993.72;7249340;19;156230;-56
2023/01/09 03:19:45;;;;;;;;;;;;;;;20.45;45.99;99005.28;7252652;19;153440;-56
2023/01/09 03:22:12;;;;;;;;;;;;;;;20.42;46.33;99007.66;7245964;19;154050;-56
2023/01/09 03:24:38;;;;;;;;;;;;;;;20.40;46.45;99015.59;7249553;19;154301;-55
2023/01/09 03:27:07;;;;;;;;;;;;;;;20.39;46.25;99016.78;7248995;19;152030;-56
2023/01/09 03:29:34;;;;;;;;;;;;;;;20.39;46.07;99021.59;7250846;19;154004;-55
2023/01/09 03:32:01;;;;;;;;;;;;;;;20.38;46.41;99026.38;7245882;19;154503;-55
2023/01/09 03:34:27;;;;;;;;;;;;;;;20.36;46.40;99027.88;7244354;19;154993;-55
2023/01/09 03:36:54;;;;;;;;;;;;;;;20.34;46.07;99039.47;7252176;19;153286;-55
2023/01/09 03:39:21;;;;;;;;;;;;;;;20.31;46.07;99036.53;7249728;19;153723;-56
2023/01/09 03:41:47;;;;;;;;;;;;;;;20.29;46.41;99044.47;7249868;19;155249;-56
2023/01/09 03:44:14;;;;;;;;;;;;;;;20.26;46.35;99045.97;7246870;19;155141;-56
2023/01/09 03:46:40;;;;;;;;;;;;;;;20.26;46.20;99056.41;7246154;19;153550;-56
2023/01/09 03:49:07;;;;;;;;;;;;;;;20.23;46.21;99052.31;7250605;19;152842;-56
2023/01/09 03:51:34;;;;;;;;;;;;;;;20.22;46.17;99055.44;7246212;19;154019;-56
2023/01/09 03:54:00;;;;;;;;;;;;;;;20.20;46.39;99067.03;7255411;19;153857;-56
2023/01/09 03:56:27;;;;;;;;;;;;;;;20.18;46.23;99066.56;7255576;19;155200;-56
2023/01/09 03:58:54;;;;;;;;;;;;;;;20.17;46.43;99073.31;7263566;19;155804;-56
2023/01/09 04:01:20;;;;;;;;;;;;;;;20.14;46.43;99078.84;7254191;19;156236;-56
2023/01/09 04:03:47;;;;;;;;;;;;;;;20.13;46.53;99078.00;7258073;19;154963;-56
2023/01/09 04:06:14;;;;;;;;;;;;;;;20.12;46.90;99084.00;7254459;19;153489;-56
2023/01/09 04:08:41;;;;;;;;;;;;;;;20.11;46.96;99087.94;7255187;19;153740;-56
2023/01/09 04:11:08;;;;;;;;;;;;;;;20.06;46.64;99089.00;7252847;19;153931;-57
2023/01/09 04:13:35;;;;;;;;;;;;;;;20.04;47.06;99102.53;7255725;19;153128;-56
2023/01/09 04:16:01;;;;;;;;;;;;;;;20.01;46.65;99103.25;7255456;19;153093;-56
2023/01/09 04:18:28;;;;;;;;;;;;;;;19.99;46.97;99112.00;7263097;19;153777;-56
2023/01/09 04:20:55;;;;;;;;;;;;;;;19.98;47.07;99112.38;7254181;19;153880;-56
2023/01/09 04:23:21;;;;;;;;;;;;;;;19.95;46.87;99115.84;7253738;19;154390;-56
2023/01/09 04:25:48;;;;;;;;;;;;;;;19.93;46.73;99124.63;7255269;19;153586;-55
2023/01/09 04:28:15;;;;;;;;;;;;;;;19.93;47.17;99115.41;7256086;19;157582;-55
2023/01/09 04:30:41;;;;;;;;;;;;;;;19.90;47.06;99122.50;7251273;19;153240;-56
2023/01/09 04:33:08;;;;;;;;;;;;;;;19.90;47.37;99130.09;7254970;19;153159;-56
2023/01/09 04:35:35;;;;;;;;;;;;;;;19.86;47.24;99137.56;7254108;19;152751;-56
2023/01/09 04:38:01;;;;;;;;;;;;;;;19.84;47.14;99135.13;7253212;19;153423;-56
2023/01/09 04:40:28;;;;;;;;;;;;;;;19.84;46.96;99137.94;7260288;19;153187;-56
2023/01/09 04:42:55;;;;;;;;;;;;;;;19.83;47.32;99147.50;7254332;19;154346;-56
2023/01/09 04:45:21;;;;;;;;;;;;;;;19.81;47.14;99141.41;7257986;19;154215;-56
2023/01/09 04:47:48;;;;;;;;;;;;;;;19.79;47.21;99151.34;7256095;19;153284;-56
2023/01/09 04:50:15;;;;;;;;;;;;;;;19.77;47.36;99151.69;7253460;19;153902;-56
2023/01/09 04:52:41;;;;;;;;;;;;;;;19.76;47.31;99152.03;7254327;19;153670;-55
2023/01/09 04:55:08;;;;;;;;;;;;;;;19.74;47.22;99152.38;7255791;19;153567;-56
2023/01/09 04:57:35;;;;;;;;;;;;;;;19.73;47.40;99156.34;7253518;19;154322;-55
2023/01/09 05:00:04;;;;;;;;;;;;;;;19.70;47.70;99159.84;7256331;19;154682;-56
2023/01/09 05:02:30;;;;;;;;;;;;;;;19.69;47.51;99158.19;7259037;19;153430;-55
2023/01/09 05:04:57;;;;;;;;;;;;;;;19.66;47.35;99160.88;7253162;19;153051;-56
2023/01/09 05:07:24;;;;;;;;;;;;;;;19.65;47.37;99170.44;7251053;19;154397;-56
2023/01/09 05:09:50;;;;;;;;;;;;;;;19.63;47.31;99173.59;7252115;19;154469;-56
2023/01/09 05:12:17;;;;;;;;;;;;;;;19.62;47.32;99166.38;7252027;19;154422;-56
2023/01/09 05:14:44;;;;;;;;;;;;;;;19.60;47.68;99171.50;7255176;19;152069;-55
2023/01/09 05:17:10;;;;;;;;;;;;;;;19.60;47.58;99167.88;7252723;19;156846;-55
2023/01/09 05:19:38;;;;;;;;;;;;;;;19.56;47.90;99167.75;7252858;19;152280;-55
2023/01/09 05:22:04;;;;;;;;;;;;;;;19.54;47.91;99176.47;7250828;19;155697;-55
2023/01/09 05:24:31;;;;;;;;;;;;;;;19.53;47.73;99182.44;7258856;19;155815;-55
2023/01/09 05:26:58;;;;;;;;;;;;;;;19.52;47.52;99186.41;7248365;19;154365;-55
2023/01/09 05:29:24;;;;;;;;;;;;;;;19.50;47.81;99191.53;7253559;19;153691;-56
2023/01/09 05:31:51;;;;;;;;;;;;;;;19.49;47.95;99201.09;7253565;19;153597;-55
2023/01/09 05:34:18;;;;;;;;;;;;;;;19.51;47.82;99209.97;7254707;19;154356;-56
2023/01/09 05:36:45;;;;;;;;;;;;;;;19.51;47.71;99213.59;7248332;19;153991;-55
2023/01/09 05:39:12;;;;;;;;;;;;;;;19.56;47.95;99212.56;7251563;19;154222;-56
2023/01/09 05:41:38;;;;;;;;;;;;;;;19.60;47.97;99218.28;7254039;19;152172;-56
2023/01/09 05:44:05;;;;;;;;;;;;;;;19.65;48.01;99223.69;7253011;19;154640;-56
2023/01/09 05:46:32;;;;;;;;;;;;;;;19.69;48.37;99230.22;7260445;19;153789;-55
2023/01/09 05:48:58;;;;;;;;;;;;;;;19.77;48.11;99234.94;7250426;19;155383;-55
2023/01/09 05:51:25;;;;;;;;;;;;;;;19.81;48.50;99233.88;7252108;19;153531;-56
2023/01/09 05:53:52;;;;;;;;;;;;;;;19.87;48.23;99240.09;7251870;19;153468;-56
2023/01/09 05:56:19;;;;;;;;;;;;;;;19.92;48.40;99237.91;7249328;19;154109;-56
2023/01/09 05:58:45;;;;;;;;;;;;;;;19.97;48.50;99232.09;7253912;19;153016;-56
2023/01/09 06:01:12;;;;;;;;;;;;;;;20.04;48.67;99236.28;7252611;19;152188;-55
2023/01/09 06:03:39;;;;;;;;;;;;;;;20.08;48.66;99229.63;7253062;19;153905;-56
2023/01/09 06:06:06;;;;;;;;;;;;;;;20.12;49.02;99239.03;7249262;19;153569;-56
2023/01/09 06:08:32;;;;;;;;;;;;;;;20.18;48.82;99245.19;7260422;19;155102;-56
2023/01/09 06:10:59;;;;;;;;;;;;;;;20.22;48.91;99252.56;7248443;19;152651;-55
2023/01/09 06:13:26;;;;;;;;;;;;;;;20.27;49.41;99248.72;7252826;19;153245;-56
2023/01/09 06:15:53;;;;;;;;;;;;;;;20.32;49.26;99254.97;7244463;19;154679;-56
2023/01/09 06:18:19;;;;;;;;;;;;;;;20.37;49.31;99253.91;7248959;19;153560;-56
2023/01/09 06:20:46;;;;;;;;;;;;;;;20.42;49.56;99260.13;7251148;19;153701;-56
2023/01/09 06:23:13;;;;;;;;;;;;;;;20.48;49.74;99271.13;7250529;19;153851;-55
2023/01/09 06:25:40;;;;;;;;;;;;;;;20.53;49.55;99274.53;7249099;19;153772;-55
2023/01/09 06:28:06;;;;;;;;;;;;;;;20.58;49.31;99267.88;7256574;19;154691;-55
2023/01/09 06:30:33;;;;;;;;;;;;;;;20.62;49.46;99278.03;7251143;19;152877;-56
2023/01/09 06:33:00;;;;;;;;;;;;;;;20.67;49.30;99285.41;7252433;19;155081;-56
2023/01/09 06:35:27;;;;;;;;;;;;;;;20.71;49.09;99287.16;7247598;19;156146;-56
2023/01/09 06:37:53;;;;;;;;;;;;;;;20.76;49.12;99288.88;7247244;19;152428;-56
2023/01/09 06:40:20;;;;;;;;;;;;;;;20.81;48.73;99292.28;7250768;19;153038;-55
2023/01/09 06:42:48;;;;;;;;;;;;;;;20.85;48.51;99295.22;7249201;19;153408;-55
2023/01/09 06:45:15;;;;;;;;;;;;;;;20.90;48.42;99291.34;7249505;19;151969;-56
2023/01/09 06:47:42;;;;;;;;;;;;;;;20.96;48.07;99307.63;7252395;19;154002;-56
2023/01/09 06:50:09;;;;;;;;;;;;;;;20.99;47.90;99308.91;7257704;19;154139;-55
2023/01/09 06:52:36;;;;;;;;;;;;;;;21.03;48.05;99305.03;7247472;19;154029;-55
2023/01/09 06:55:03;;;;;;;;;;;;;;;21.08;47.83;99313.22;7248844;19;154172;-55
2023/01/09 06:57:30;;;;;;;;;;;;;;;21.12;47.97;99313.38;7251377;19;151800;-55
2023/01/09 06:59:57;;;;;;;;;;;;;;;21.17;47.74;99321.56;7253060;19;154500;-55
2023/01/09 07:02:23;;;;;;;;;;;;;;;21.21;47.51;99326.13;7247834;19;154156;-55
2023/01/09 07:04:50;;;;;;;;;;;;;;;21.23;47.80;99320.97;7249731;19;152047;-55
2023/01/09 07:07:18;;;;;;;;;;;;;;;21.28;47.55;99328.34;7248706;19;152995;-55
2023/01/09 07:09:45;;;;;;;;;;;;;;;21.31;47.01;99324.81;7249199;19;153286;-55
2023/01/09 07:12:13;;;;;;;;;;;;;;;21.36;47.17;99332.19;7257539;19;154064;-55
2023/01/09 07:14:40;;;;;;;;;;;;;;;21.40;46.95;99338.72;7251136;19;154354;-55
2023/01/09 07:17:07;;;;;;;;;;;;;;;21.44;46.67;99343.28;7246500;19;153026;-55
2023/01/09 07:19:34;;;;;;;;;;;;;;;21.48;46.78;99349.88;7252157;19;156097;-55
2023/01/09 07:22:01;;;;;;;;;;;;;;;21.51;46.86;99353.94;7246477;19;154611;-55
2023/01/09 07:24:27;;;;;;;;;;;;;;;21.56;46.37;99359.34;7247227;19;153362;-54
2023/01/09 07:26:54;;;;;;;;;;;;;;;21.60;46.50;99361.09;7253664;19;153583;-55
2023/01/09 07:29:21;;;;;;;;;;;;;;;21.64;46.59;99364.81;7254177;19;153255;-56
2023/01/09 07:31:47;;;;;;;;;;;;;;;21.64;44.96;99373.25;7258162;19;154303;-57
2023/01/09 07:34:14;;;;;;;;;;;;;;;21.66;44.25;99370.91;7263513;19;153624;-57
2023/01/09 07:36:41;;;;;;;;;;;;;;;21.66;43.92;99368.09;7256345;19;154128;-57
2023/01/09 07:39:08;;;;;;;;;;;;;;;21.67;43.74;99392.22;7258047;19;153871;-56
2023/01/09 07:41:34;;;;;;;;;;;;;;;21.46;39.98;99382.28;7256197;19;155117;-57
2023/01/09 07:44:01;;;;;;;;;;;;;;;21.51;40.82;99387.69;7258698;19;153195;-56
2023/01/09 07:46:28;;;;;;;;;;;;;;;21.55;41.77;99406.28;7254486;19;153779;-56
2023/01/09 07:48:54;;;;;;;;;;;;;;;21.57;41.92;99397.50;7257913;19;153809;-55
2023/01/09 07:51:21;;;;;;;;;;;;;;;21.61;42.41;99404.06;7255567;19;153545;-55
2023/01/09 07:53:48;;;;;;;;;;;;;;;21.63;42.52;99404.50;7255176;19;155681;-55
2023/01/09 07:56:15;;;;;;;;;;;;;;;21.65;42.74;99410.63;7264529;19;154504;-56
2023/01/09 07:58:41;;;;;;;;;;;;;;;21.68;43.20;99426.75;7252245;19;153741;-56
2023/01/09 08:01:08;;;;;;;;;;;;;;;21.70;43.09;99427.25;7256256;19;153550;-56
2023/01/09 08:03:35;;;;;;;;;;;;;;;21.72;43.33;99430.50;7258578;19;153178;-55
2023/01/09 08:06:02;;;;;;;;;;;;;;;21.73;42.85;99432.16;7256099;19;154573;-56
2023/01/09 08:08:29;;;;;;;;;;;;;;;21.75;42.86;99438.25;7252442;19;156626;-56
2023/01/09 08:10:56;;;;;;;;;;;;;;;21.78;42.87;99442.34;7253124;19;152976;-56
2023/01/09 08:13:22;;;;;;;;;;;;;;;21.78;43.54;99445.97;7257202;19;153948;-56
2023/01/09 08:15:49;;;;;;;;;;;;;;;21.79;43.06;99450.44;7256550;19;153835;-56
2023/01/09 08:18:16;;;;;;;;;;;;;;;21.81;43.03;99448.06;7262707;19;153145;-56
2023/01/09 08:20:43;;;;;;;;;;;;;;;21.82;43.45;99449.72;7254274;19;154204;-56
2023/01/09 08:23:09;;;;;;;;;;;;;;;21.85;43.08;99465.06;7255919;19;153901;-56
2023/01/09 08:25:36;;;;;;;;;;;;;;;21.85;43.14;99457.44;7256414;19;153334;-55
2023/01/09 08:28:03;;;;;;;;;;;;;;;21.86;43.34;99467.50;7255612;19;156660;-56
2023/01/09 08:30:30;;;;;;;;;;;;;;;21.86;43.37;99478.75;7256126;19;152260;-56
2023/01/09 08:32:57;;;;;;;;;;;;;;;21.85;43.28;99479.91;7257467;19;154613;-56
2023/01/09 08:35:23;;;;;;;;;;;;;;;21.84;43.77;99492.38;7253239;19;154084;-55
2023/01/09 08:37:50;;;;;;;;;;;;;;;21.85;43.78;99502.41;7262217;19;152770;-55
2023/01/09 08:40:17;;;;;;;;;;;;;;;21.86;43.85;99512.50;7253698;19;154146;-55
2023/01/09 08:47:56;;;;;;;;;;;;;;;21.83;43.61;99520.81;7255548;19;154595;-56
2023/01/09 08:50:23;;;;;;;;;;;;;;;21.82;43.88;99528.44;7255441;19;153663;-55
2023/01/09 08:52:50;;;;;;;;;;;;;;;21.79;43.89;99526.34;7257593;19;153851;-56
2023/01/09 08:55:16;;;;;;;;;;;;;;;21.77;43.96;99539.09;7254369;19;155260;-55
2023/01/09 08:57:48;;;;;;;;;;;;;;;21.73;44.12;99531.38;7259182;19;152305;-55
2023/01/09 09:00:15;;;;;;;;;;;;;;;21.70;44.43;99540.50;7260280;19;152829;-55
2023/01/09 09:02:42;;;;;;;;;;;;;;;21.68;44.26;99542.84;7256685;19;154482;-55
2023/01/09 09:05:09;;;;;;;;;;;;;;;21.64;44.31;99544.72;7254962;19;155410;-55
2023/01/09 09:07:36;;;;;;;;;;;;;;;21.61;44.61;99550.22;7251335;19;153671;-55
2023/01/09 09:10:03;;;;;;;;;;;;;;;21.59;44.91;99547.75;7252139;19;154137;-56
2023/01/09 09:12:30;;;;;;;;;;;;;;;21.55;44.60;99555.25;7255111;19;153988;-55
2023/01/09 09:17:32;;;;;;;;;;;;;;;21.51;45.19;99570.34;7255681;19;154394;-54
2023/01/09 09:19:59;;;;;;;;;;;;;;;21.47;44.78;99566.59;7255925;19;153390;-55
2023/01/09 09:22:26;;;;;;;;;;;;;;;21.46;45.03;99577.00;7259176;19;153614;-55
2023/01/09 09:24:53;;;;;;;;;;;;;;;21.42;44.91;99584.50;7255415;19;154121;-55
2023/01/09 09:27:19;;;;;;;;;;;;;;;21.40;45.29;99581.19;7254109;19;154322;-55
2023/01/09 09:29:47;;;;;;;;;;;;;;;21.37;45.36;99590.34;7250394;19;153257;-55
2023/01/09 09:32:14;;;;;;;;;;;;;;;21.35;45.23;99589.06;7251954;19;154402;-55
2023/01/09 09:34:41;;;;;;;;;;;;;;;21.31;45.36;99605.75;7252436;19;154382;-54
2023/01/09 09:37:08;;;;;;;;;;;;;;;21.29;45.17;99596.88;7252078;19;154518;-55
2023/01/09 09:39:35;;;;;;;;;;;;;;;21.27;45.08;99607.63;7250072;19;153892;-55
2023/01/09 09:47:19;;;;;;;;;;;;;;;21.16;45.29;99623.28;7256016;19;155481;-54
2023/01/09 09:49:49;;;;;;;;;;;;;;;21.14;45.59;99619.97;7253868;19;152593;-54
2023/01/09 09:52:19;;;;;;;;;;;;;;;21.11;45.62;99629.06;7252516;19;156454;-55
2023/01/09 09:54:49;;;;;;;;;;;;;;;21.08;45.35;99638.16;7253148;19;153812;-55
2023/01/09 09:57:19;;;;;;;;;;;;;;;21.05;45.08;99647.28;7251686;19;152596;-54
2023/01/09 09:59:50;;;;;;;;;;;;;;;21.02;45.45;99651.63;7254266;19;153646;-54
2023/01/09 10:02:20;;;;;;;;;;;;;;;20.99;45.28;99657.06;7251431;19;153904;-54
2023/01/09 10:04:49;;;;;;;;;;;;;;;20.97;45.35;99663.06;7254239;19;153577;-54
2023/01/09 10:07:21;;;;;;;;;;;;;;;20.96;45.45;99671.81;7255963;19;154262;-55
2023/01/09 10:09:49;;;;;;;;;;;;;;;20.92;45.15;99677.31;7252861;19;153304;-54
2023/01/09 10:12:18;;;;;;;;;;;;;;;20.90;45.43;99685.22;7253365;19;153220;-54
2023/01/09 10:14:45;;;;;;;;;;;;;;;20.86;45.48;99693.53;7250732;19;153672;-54
2023/01/09 10:17:16;;;;;;;;;;;;;;;20.85;45.81;99700.28;7254816;19;153738;-54
2023/01/09 10:19:46;;;;;;;;;;;;;;;20.82;45.80;99706.59;7251411;19;155669;-55
2023/01/09 10:22:16;;;;;;;;;;;;;;;20.80;45.69;99717.34;7249651;19;154128;-55
2023/01/09 10:24:46;;;;;;;;;;;;;;;20.77;45.54;99712.41;7252912;19;153019;-55
2023/01/09 10:27:16;;;;;;;;;;;;;;;20.76;45.77;99732.38;7252995;19;154424;-54
2023/01/09 10:29:45;;;;;;;;;;;;;;;20.74;45.92;99734.72;7258279;19;152472;-54
2023/01/09 10:32:15;;;;;;;;;;;;;;;20.72;45.52;99743.47;7254012;19;153964;-55
2023/01/09 10:34:45;;;;;;;;;;;;;;;20.70;45.42;99742.19;7252081;19;154648;-54
2023/01/09 10:37:15;;;;;;;;;;;;;;;20.68;45.45;99750.94;7251017;19;153613;-54
2023/01/09 10:39:45;;;;;;;;;;;;;;;20.65;46.04;99760.03;7247717;19;154270;-54
2023/01/09 10:42:13;;;;;;;;;;;;;;;20.64;45.75;99766.81;7251254;19;152824;-54
2023/01/09 10:44:46;;;;;;;;;;;;;;;20.61;46.01;99767.50;7253882;19;153985;-54
2023/01/09 10:47:16;;;;;;;;;;;;;;;20.59;45.74;99768.97;7251553;19;153331;-54
2023/01/09 10:49:44;;;;;;;;;;;;;;;20.59;46.03;99778.22;7259956;19;154491;-54
2023/01/09 10:52:15;;;;;;;;;;;;;;;20.57;46.14;99774.13;7246004;19;155105;-54
2023/01/09 10:54:45;;;;;;;;;;;;;;;20.55;45.83;99784.84;7250380;19;155133;-54
2023/01/09 10:57:15;;;;;;;;;;;;;;;20.52;45.96;99786.34;7252095;19;152932;-54
2023/01/09 10:59:42;;;;;;;;;;;;;;;20.50;46.17;99799.88;7247983;19;153837;-55
2023/01/09 11:02:12;;;;;;;;;;;;;;;20.47;46.52;99794.97;7249574;19;153624;-55
2023/01/09 11:04:39;;;;;;;;;;;;;;;20.47;46.31;99805.34;7249819;19;152684;-54
2023/01/09 11:07:09;;;;;;;;;;;;;;;20.44;46.74;99806.88;7248217;19;154932;-54
2023/01/09 11:09:39;;;;;;;;;;;;;;;20.44;46.71;99808.84;7248397;19;152629;-55
2023/01/09 11:12:12;;;;;;;;;;;;;;;20.42;46.60;99809.16;7256243;19;153824;-55
2023/01/09 11:14:39;;;;;;;;;;;;;;;20.41;46.61;99815.94;7250116;19;153411;-55
2023/01/09 11:17:17;;;;;;;;;;;;;;;20.41;46.98;99816.75;7250099;19;153405;-55
2023/01/09 11:20:00;;;;;;;;;;;;;;;20.41;46.77;99818.72;7250845;19;153291;-55
2023/01/09 11:22:27;;;;;;;;;;;;;;;20.39;46.60;99824.69;7248329;19;153929;-55
2023/01/09 11:24:57;;;;;;;;;;;;;;;20.37;46.52;99826.19;7252782;19;155657;-55
2023/01/09 11:27:25;;;;;;;;;;;;;;;20.35;46.99;99828.50;7247612;19;153838;-55
2023/01/09 11:29:55;;;;;;;;;;;;;;;20.32;46.99;99829.16;7249192;19;154390;-55
2023/01/09 11:32:24;;;;;;;;;;;;;;;20.32;46.83;99829.97;7249133;19;152619;-55
2023/01/09 11:34:51;;;;;;;;;;;;;;;20.37;47.00;99834.59;7256742;19;154082;-55
2023/01/09 11:37:23;;;;;;;;;;;;;;;20.39;46.60;99835.09;7246872;19;153143;-55
2023/01/09 11:39:50;;;;;;;;;;;;;;;20.42;46.03;99840.03;7223768;19;154332;-56
2023/01/09 11:44:56;;;;;;;;;;;;;;;20.50;45.00;99853.19;7248299;19;152301;-56
2023/01/09 11:47:25;;;;;;;;;;;;;;;20.53;44.54;99848.91;7249917;19;153404;-56
2023/01/09 11:50:06;;;;;;;;;;;;;;;20.57;44.00;99863.91;7247542;19;153352;-56
2023/01/09 11:52:33;;;;;;;;;;;;;;;20.60;44.09;99864.06;7243941;19;154173;-56
2023/01/09 11:55:04;;;;;;;;;;;;;;;20.63;43.56;99880.22;7249463;19;153199;-56
2023/01/09 11:57:33;;;;;;;;;;;;;;;20.65;43.92;99880.72;7253990;19;154366;-56
2023/01/09 12:00:02;;;;;;;;;;;;;;;20.69;43.54;99884.50;7248567;19;154862;-55
2023/01/09 12:02:32;;;;;;;;;;;;;;;20.73;43.33;99893.91;7247178;19;154361;-56
2023/01/09 12:05:00;;;;;;;;;;;;;;;20.75;43.38;99893.56;7250093;19;153694;-55
2023/01/09 12:07:30;;;;;;;;;;;;;;;20.77;43.50;99892.06;7248576;19;153478;-55
2023/01/09 12:09:57;;;;;;;;;;;;;;;20.79;43.14;99892.56;7246458;19;156215;-55
2023/01/09 12:12:30;;;;;;;;;;;;;;;20.83;42.88;99904.78;7250008;19;152343;-55
2023/01/09 12:14:58;;;;;;;;;;;;;;;20.87;43.20;99913.34;7255805;19;153483;-55
2023/01/09 12:17:28;;;;;;;;;;;;;;;20.90;43.23;99917.44;7255487;19;153617;-55
2023/01/09 12:19:55;;;;;;;;;;;;;;;20.80;41.72;99915.84;7264134;19;153290;-56
2023/01/09 12:22:30;;;;;;;;;;;;;;;20.67;39.64;99930.94;7249235;19;153297;-56
2023/01/09 12:25:00;;;;;;;;;;;;;;;20.74;39.84;99925.59;7253515;19;153960;-56
2023/01/09 12:27:29;;;;;;;;;;;;;;;20.81;40.41;99932.34;7255595;19;154133;-56
2023/01/09 12:30:06;;;;;;;;;;;;;;;20.86;40.49;99925.72;7237684;19;155383;-56
2023/01/09 12:32:41;;;;;;;;;;;;;;;20.91;40.65;99933.97;7250109;19;152904;-56
2023/01/09 12:35:16;;;;;;;;;;;;;;;20.97;40.87;99934.63;7253351;19;153169;-57
2023/01/09 12:37:52;;;;;;;;;;;;;;;21.00;40.95;99945.16;7248204;19;153599;-56
2023/01/09 12:40:21;;;;;;;;;;;;;;;21.04;40.89;99948.94;7254987;19;153175;-56
2023/01/09 12:43:00;;;;;;;;;;;;;;;21.07;41.12;99949.13;7251060;19;155862;-56
2023/01/09 12:45:38;;;;;;;;;;;;;;;21.10;41.02;99950.41;7255290;19;153575;-56
2023/01/09 12:48:12;;;;;;;;;;;;;;;21.16;40.90;99965.97;7253228;19;153367;-56
2023/01/09 12:50:42;;;;;;;;;;;;;;;21.19;40.96;99957.69;7252390;19;153862;-56
2023/01/09 12:53:09;;;;;;;;;;;;;;;21.24;41.02;99967.91;7254615;19;155430;-56
2023/01/09 12:55:39;;;;;;;;;;;;;;;21.28;41.37;99974.50;7250161;19;154797;-56
2023/01/09 12:58:13;;;;;;;;;;;;;;;21.32;41.09;99974.66;7251923;19;155116;-56
2023/01/09 13:00:41;;;;;;;;;;;;;;;21.36;41.24;99981.25;7249148;19;154262;-56